Hauptseite
METAR-TAF:

METAR-TAF

Flughäfen :

Flughafen Rodez-Aveyron

Rodez, Frankreich

Breite: 44-24N, Länge: 002-29E, Höhe: 581 m

Beobachtung

Neuester Wetterbericht von vor 41 Minuten, um 22:00 UTC
Wind 8 kt aus Südost
Temperatur 9°C
Luftfeuchtigkeit 61%
Luftdruck 1024 hPa
Sichtweite 10 km oder mehr
keine Wolken unter 1500 m und keine Kumulonimbus oder Gewitterwolken

METAR: LFCR 082200Z AUTO 13008KT CAVOK 09/02 Q1024

Zeit: 00:41 (22:41 UTC)


TAF: fehlend

Wetterbeobachtungen und Prognosen von mehr als 4000 Flughäfen (METAR und TAF Bericht).

Die verfügbaren Stationen werden durch gelbe und rote Markierungen auf der Karte dargestellt.

Führen Sie die Maus auf sie, um den Namen der Station zu sehen.

Darauf klicken, um die Beobachtung von Wetterbeobachtungen und Prognosen zu sehen.

Um die Karte zu ändern : klicken Sie auf den grünen Tasten mit einem schwarzen Kreuz Zum Vergrößern, auf den grünen Button mit einem Gedankenstrich zu verkleinern, oder auf die grünen Pfeile für benachbarte Karten.


METAR-TAF: